createdAt,value
2019-02-04T00:02:27.176Z,90.31
2019-02-04T00:04:58.800Z,90.39
2019-02-04T00:07:30.439Z,90.53
2019-02-04T00:10:01.843Z,90.54
2019-02-04T00:12:33.745Z,90.39
2019-02-04T00:15:07.991Z,90.35
2019-02-04T00:17:40.770Z,90.44
2019-02-04T00:20:13.231Z,90.52
2019-02-04T00:22:45.020Z,90.43
2019-02-04T00:25:17.137Z,90.62
2019-02-04T00:27:48.838Z,90.75
2019-02-04T00:30:21.467Z,90.80
2019-02-04T00:32:52.978Z,90.84
2019-02-04T00:35:24.286Z,90.88
2019-02-04T00:37:55.666Z,90.91
2019-02-04T00:40:46.574Z,90.80
2019-02-04T00:43:17.890Z,90.80
2019-02-04T00:45:51.286Z,90.95
2019-02-04T00:48:23.019Z,90.92
2019-02-04T00:50:54.601Z,90.99
2019-02-04T00:53:26.374Z,91.01
2019-02-04T00:55:58.124Z,91.02
2019-02-04T00:58:30.103Z,91.03
2019-02-04T01:01:01.729Z,91.04
2019-02-04T01:03:33.088Z,91.05
2019-02-04T01:06:04.537Z,91.05
2019-02-04T01:08:36.697Z,91.06
2019-02-04T01:11:08.218Z,91.06
2019-02-04T01:13:39.528Z,91.03
2019-02-04T01:16:10.810Z,91.02
2019-02-04T01:18:44.125Z,91.06
2019-02-04T01:21:15.453Z,91.12
2019-02-04T01:23:46.842Z,91.12
2019-02-04T01:26:18.377Z,91.23
2019-02-04T01:28:49.733Z,91.25
2019-02-04T01:31:21.058Z,91.30
2019-02-04T01:33:52.712Z,91.28
2019-02-04T01:36:25.001Z,91.31
2019-02-04T01:38:56.997Z,91.36
2019-02-04T01:41:28.910Z,91.36
2019-02-04T01:44:00.296Z,91.39
2019-02-04T01:46:32.063Z,91.42
2019-02-04T01:49:04.095Z,91.43
2019-02-04T01:51:35.799Z,91.44
2019-02-04T01:54:07.308Z,91.46
2019-02-04T01:56:38.787Z,91.46
2019-02-04T01:59:11.324Z,91.46
2019-02-04T02:01:42.608Z,91.45
2019-02-04T02:04:14.320Z,91.42
2019-02-04T02:06:46.116Z,91.38
2019-02-04T02:09:26.976Z,91.38
2019-02-04T02:11:58.413Z,91.42
2019-02-04T02:14:30.419Z,91.47
2019-02-04T02:17:02.121Z,91.53
2019-02-04T02:19:34.350Z,91.54
2019-02-04T02:22:06.520Z,91.48
2019-02-04T02:24:37.898Z,91.46
2019-02-04T02:27:09.282Z,91.45
2019-02-04T02:29:40.621Z,91.48
2019-02-04T02:32:12.152Z,91.48
2019-02-04T02:34:43.479Z,91.55
2019-02-04T02:37:15.035Z,91.59
2019-02-04T02:39:46.660Z,91.63
2019-02-04T02:42:18.391Z,91.65
2019-02-04T02:44:49.998Z,91.62
2019-02-04T02:47:21.459Z,91.63
2019-02-04T02:49:53.303Z,91.59
2019-02-04T02:52:24.696Z,91.57
2019-02-04T02:54:56.075Z,91.54
2019-02-04T02:57:27.488Z,91.54
2019-02-04T02:59:58.779Z,91.52
2019-02-04T03:02:30.480Z,91.46
2019-02-04T03:05:01.878Z,91.44
2019-02-04T03:07:33.253Z,91.41
2019-02-04T03:10:05.052Z,91.33
2019-02-04T03:12:37.021Z,91.35
2019-02-04T03:15:09.669Z,91.33
2019-02-04T03:17:51.049Z,91.33
2019-02-04T03:20:14.511Z,91.29
2019-02-04T03:22:45.854Z,91.23
2019-02-04T03:25:17.225Z,91.30
2019-02-04T03:27:48.589Z,91.26
2019-02-04T03:30:29.743Z,91.24
2019-02-04T03:33:01.099Z,91.20
2019-02-04T03:35:32.967Z,91.19
2019-02-04T03:38:04.938Z,91.20
2019-02-04T03:40:36.260Z,91.18
2019-02-04T03:43:07.659Z,91.21
2019-02-04T03:45:39.239Z,91.23
2019-02-04T03:48:10.575Z,91.22
2019-02-04T03:50:42.257Z,91.21
2019-02-04T03:53:13.872Z,91.25
2019-02-04T03:55:45.217Z,91.33
2019-02-04T03:58:16.624Z,91.30
2019-02-04T04:00:48.305Z,91.26
2019-02-04T04:03:19.944Z,91.17
2019-02-04T04:05:51.505Z,91.30
2019-02-04T04:08:23.048Z,91.37
2019-02-04T04:10:55.178Z,91.43
2019-02-04T04:13:27.999Z,91.44
2019-02-04T04:15:59.681Z,91.41
2019-02-04T04:18:31.071Z,91.46
2019-02-04T04:21:02.631Z,91.43
2019-02-04T04:23:33.983Z,91.45
2019-02-04T04:26:06.295Z,91.50
2019-02-04T04:28:38.300Z,91.47
2019-02-04T04:31:09.709Z,91.50
2019-02-04T04:33:41.421Z,91.46
2019-02-04T04:36:13.079Z,91.53
2019-02-04T04:38:45.311Z,91.49
2019-02-04T04:41:17.279Z,91.40
2019-02-04T04:43:48.969Z,91.28
2019-02-04T04:46:20.701Z,91.12
2019-02-04T04:48:52.711Z,91.03
2019-02-04T04:51:24.636Z,90.95
2019-02-04T04:53:55.963Z,90.83
2019-02-04T04:56:28.089Z,90.73
2019-02-04T04:58:59.480Z,90.69
2019-02-04T05:01:31.252Z,90.60
2019-02-04T05:04:02.694Z,90.53
2019-02-04T05:06:34.052Z,90.44
2019-02-04T05:09:07.501Z,90.24
2019-02-04T05:11:38.820Z,90.18
2019-02-04T05:14:10.593Z,90.28
2019-02-04T05:16:41.977Z,90.41
2019-02-04T05:19:13.301Z,90.45
2019-02-04T05:21:44.705Z,90.32
2019-02-04T05:24:16.014Z,90.31
2019-02-04T05:26:47.641Z,90.29
2019-02-04T05:29:19.146Z,90.29
2019-02-04T05:31:50.476Z,90.16
2019-02-04T05:34:21.963Z,90.10
2019-02-04T05:36:53.519Z,90.06
2019-02-04T05:39:25.190Z,90.06
2019-02-04T05:41:56.524Z,90.04
2019-02-04T05:44:27.928Z,89.97
2019-02-04T05:47:00.546Z,89.91
2019-02-04T05:49:31.984Z,89.83
2019-02-04T05:52:03.547Z,89.76
2019-02-04T05:54:34.892Z,89.65
2019-02-04T05:57:06.352Z,89.59
2019-02-04T05:59:37.780Z,89.64
2019-02-04T06:02:09.634Z,89.72
2019-02-04T06:04:41.044Z,89.68
2019-02-04T06:07:15.341Z,89.71
2019-02-04T06:09:45.778Z,89.65
2019-02-04T06:12:17.182Z,89.63
2019-02-04T06:14:48.597Z,89.64
2019-02-04T06:17:20.423Z,89.60
2019-02-04T06:19:52.080Z,89.65
2019-02-04T06:22:23.919Z,89.64
2019-02-04T06:24:55.321Z,89.65
2019-02-04T06:27:27.061Z,89.70
2019-02-04T06:29:58.439Z,89.72
2019-02-04T06:32:29.845Z,89.54
2019-02-04T06:35:01.175Z,89.58
2019-02-04T06:37:32.545Z,89.53
2019-02-04T06:40:06.737Z,89.52
2019-02-04T06:42:38.335Z,89.46
2019-02-04T06:45:12.592Z,89.43
2019-02-04T06:47:44.014Z,89.37
2019-02-04T06:50:17.084Z,89.37
2019-02-04T06:52:48.475Z,89.46
2019-02-04T06:55:29.421Z,89.30
2019-02-04T06:58:00.851Z,89.16
2019-02-04T07:00:32.810Z,89.21
2019-02-04T07:03:04.634Z,89.19
2019-02-04T07:05:43.515Z,89.08
2019-02-04T07:08:09.926Z,89.03
2019-02-04T07:10:41.654Z,89.10
2019-02-04T07:13:12.981Z,89.10
2019-02-04T07:15:45.031Z,89.10
2019-02-04T07:18:16.359Z,89.10
2019-02-04T07:20:47.724Z,89.08
2019-02-04T07:23:19.704Z,89.01
2019-02-04T07:25:51.424Z,88.97
2019-02-04T07:28:22.779Z,88.87
2019-02-04T07:30:54.184Z,88.88
2019-02-04T07:33:26.178Z,88.75
2019-02-04T07:35:57.816Z,88.71
2019-02-04T07:38:29.289Z,88.63
2019-02-04T07:41:01.251Z,88.62
2019-02-04T07:43:32.911Z,88.68
2019-02-04T07:46:04.397Z,88.72
2019-02-04T07:48:37.627Z,88.71
2019-02-04T07:51:08.933Z,88.77
2019-02-04T07:57:16.218Z,88.36
2019-02-04T07:59:47.460Z,88.21
2019-02-04T08:02:18.740Z,88.22
2019-02-04T08:04:50.137Z,87.57
2019-02-04T08:07:21.731Z,88.09
2019-02-04T08:09:53.021Z,87.57
2019-02-04T08:12:25.473Z,86.90
2019-02-04T08:14:57.081Z,86.34
2019-02-04T08:17:28.505Z,86.50
2019-02-04T08:19:59.973Z,85.19
2019-02-04T08:22:31.673Z,85.19
2019-02-04T08:25:03.275Z,86.66
2019-02-04T08:27:34.617Z,84.91
2019-02-04T08:30:08.075Z,84.05
2019-02-04T08:32:39.398Z,82.40
2019-02-04T08:35:11.192Z,81.93
2019-02-04T08:37:42.807Z,81.99
2019-02-04T08:40:14.783Z,80.83
2019-02-04T08:42:47.891Z,82.08
2019-02-04T08:45:19.399Z,79.36
2019-02-04T08:47:51.288Z,78.30
2019-02-04T08:50:23.408Z,78.46
2019-02-04T08:52:55.175Z,78.23
2019-02-04T08:55:26.471Z,77.62
2019-02-04T08:57:58.312Z,77.63
2019-02-04T09:00:29.886Z,75.92
2019-02-04T09:03:01.759Z,76.47
2019-02-04T09:05:33.302Z,76.80
2019-02-04T09:08:04.988Z,74.32
2019-02-04T09:10:36.705Z,75.53
2019-02-04T09:13:08.064Z,74.50
2019-02-04T09:15:39.712Z,72.39
2019-02-04T09:18:11.123Z,72.65
2019-02-04T09:20:42.558Z,71.72
2019-02-04T09:23:14.168Z,72.77
2019-02-04T09:25:45.786Z,72.62
2019-02-04T09:28:17.632Z,70.41
2019-02-04T09:30:49.324Z,71.05
2019-02-04T09:33:20.673Z,72.40
2019-02-04T09:35:52.703Z,70.92
2019-02-04T09:38:24.298Z,69.42
2019-02-04T09:40:55.574Z,70.90
2019-02-04T09:43:27.068Z,69.46
2019-02-04T09:45:58.368Z,69.46
2019-02-04T09:48:29.704Z,70.91
2019-02-04T09:51:03.326Z,67.26
2019-02-04T09:53:35.400Z,68.95
2019-02-04T09:56:07.311Z,67.84
2019-02-04T09:58:38.676Z,67.72
2019-02-04T10:01:10.208Z,66.37
2019-02-04T10:03:41.860Z,64.79
2019-02-04T10:06:13.406Z,67.93
2019-02-04T10:08:44.858Z,65.39
2019-02-04T10:11:16.517Z,64.29
2019-02-04T10:13:48.510Z,64.91
2019-02-04T10:16:19.890Z,64.43
2019-02-04T10:18:52.289Z,64.74
2019-02-04T10:21:24.122Z,65.14
2019-02-04T10:23:55.480Z,63.10
2019-02-04T10:26:27.017Z,63.96
2019-02-04T10:28:58.319Z,62.41
2019-02-04T10:31:29.635Z,64.55
2019-02-04T10:34:01.215Z,61.45
2019-02-04T10:36:32.619Z,61.37
2019-02-04T10:39:05.285Z,61.90
2019-02-04T10:41:36.587Z,61.57
2019-02-04T10:44:08.450Z,62.81
2019-02-04T10:46:40.025Z,59.96
2019-02-04T10:49:11.406Z,58.42
2019-02-04T10:51:42.757Z,59.39
2019-02-04T10:54:15.188Z,59.39
2019-02-04T10:56:46.837Z,59.68
2019-02-04T10:59:18.493Z,59.68
2019-02-04T11:01:50.074Z,59.16
2019-02-04T11:04:21.701Z,59.35
2019-02-04T11:06:53.054Z,59.46
2019-02-04T11:09:24.598Z,58.96
2019-02-04T11:11:56.634Z,59.19
2019-02-04T11:14:28.409Z,58.90
2019-02-04T11:16:59.728Z,59.12
2019-02-04T11:19:31.139Z,60.56
2019-02-04T11:22:02.918Z,59.41
2019-02-04T11:24:34.590Z,58.91
2019-02-04T11:27:06.842Z,59.85
2019-02-04T11:29:38.960Z,59.92
2019-02-04T11:32:10.524Z,58.99
2019-02-04T11:34:42.147Z,59.08
2019-02-04T11:37:15.194Z,57.85
2019-02-04T11:39:47.321Z,59.96
2019-02-04T11:42:18.773Z,59.81
2019-02-04T11:44:50.118Z,59.77
2019-02-04T11:47:21.622Z,58.94
2019-02-04T11:49:53.907Z,60.59
2019-02-04T11:52:25.727Z,58.86
2019-02-04T11:54:57.446Z,57.77
2019-02-04T11:57:28.813Z,58.21
2019-02-04T12:00:00.215Z,58.50
2019-02-04T12:02:34.693Z,59.40
2019-02-04T12:05:05.972Z,58.42
2019-02-04T12:07:37.467Z,57.92
2019-02-04T12:10:12.174Z,58.63
2019-02-04T12:12:43.528Z,59.06
2019-02-04T12:15:17.644Z,59.17
2019-02-04T12:17:49.372Z,59.33
2019-02-04T12:20:21.340Z,59.31
2019-02-04T12:22:52.798Z,58.92
2019-02-04T12:25:26.510Z,59.58
2019-02-04T12:27:58.582Z,59.79
2019-02-04T12:30:36.312Z,60.02
2019-02-04T12:33:10.171Z,60.75
2019-02-04T12:35:41.502Z,60.17
2019-02-04T12:38:13.184Z,59.20
2019-02-04T12:40:44.835Z,60.22
2019-02-04T12:43:16.419Z,60.18
2019-02-04T12:45:48.603Z,60.79
2019-02-04T12:48:20.331Z,61.27
2019-02-04T12:50:51.992Z,62.33
2019-02-04T12:53:23.419Z,59.97
2019-02-04T12:55:55.020Z,61.13
2019-02-04T12:58:26.316Z,60.78
2019-02-04T13:00:57.653Z,60.35
2019-02-04T13:03:31.643Z,60.76
2019-02-04T13:06:04.116Z,61.89
2019-02-04T13:08:36.217Z,60.44
2019-02-04T13:11:07.976Z,61.21
2019-02-04T13:13:39.320Z,61.24
2019-02-04T13:16:11.881Z,60.07
2019-02-04T13:18:43.453Z,61.12
2019-02-04T13:21:14.786Z,61.14
2019-02-04T13:23:46.938Z,61.26
2019-02-04T13:26:18.234Z,61.19
2019-02-04T13:28:49.679Z,60.99
2019-02-04T13:31:21.069Z,60.99
2019-02-04T13:33:52.528Z,60.58
2019-02-04T13:36:23.864Z,61.78
2019-02-04T13:38:55.786Z,61.12
2019-02-04T13:41:27.108Z,60.85
2019-02-04T13:43:58.411Z,61.99
2019-02-04T13:46:29.859Z,60.70
2019-02-04T13:49:01.207Z,60.70
2019-02-04T13:51:32.488Z,61.43
2019-02-04T13:54:03.833Z,62.11
2019-02-04T13:56:35.144Z,62.23
2019-02-04T13:59:06.657Z,62.01
2019-02-04T14:01:38.009Z,62.24
2019-02-04T14:04:09.429Z,61.45
2019-02-04T14:06:40.753Z,61.46
2019-02-04T14:09:20.210Z,61.11
2019-02-04T14:11:51.910Z,61.57
2019-02-04T14:14:23.609Z,61.87
2019-02-04T14:16:54.946Z,62.06
2019-02-04T14:19:26.951Z,61.35
2019-02-04T14:22:08.662Z,62.33
2019-02-04T14:24:31.674Z,61.82
2019-02-04T14:27:03.854Z,63.04
2019-02-04T14:29:35.184Z,62.02
2019-02-04T14:32:07.319Z,62.26
2019-02-04T14:34:38.648Z,62.36
2019-02-04T14:37:10.012Z,62.41
2019-02-04T14:39:41.564Z,62.17
2019-02-04T14:42:17.664Z,61.82
2019-02-04T14:45:58.078Z,62.01
2019-02-04T14:49:23.525Z,61.63
2019-02-04T14:52:32.601Z,62.38
2019-02-04T14:56:02.565Z,62.82
2019-02-04T14:59:29.116Z,62.05
2019-02-04T15:02:53.456Z,61.47
2019-02-04T15:06:08.954Z,61.52
2019-02-04T15:09:11.367Z,61.59
2019-02-04T15:12:48.864Z,61.22
2019-02-04T15:16:26.270Z,60.09
2019-02-04T15:19:52.706Z,59.30
2019-02-04T15:23:14.372Z,59.09
2019-02-04T15:26:42.867Z,59.51
2019-02-04T15:30:03.881Z,59.77
2019-02-04T15:33:45.421Z,59.77
2019-02-04T15:36:53.136Z,60.24
2019-02-04T15:40:08.485Z,60.46
2019-02-04T15:43:28.140Z,61.02
2019-02-04T15:47:06.477Z,60.18
2019-02-04T15:50:22.519Z,59.54
2019-02-04T15:52:54.233Z,59.94
2019-02-04T15:55:25.558Z,59.52
2019-02-04T15:57:56.862Z,59.44
2019-02-04T16:00:28.688Z,59.31
2019-02-04T16:03:00.410Z,59.32
2019-02-04T16:05:31.837Z,59.07
2019-02-04T16:08:03.218Z,59.41
2019-02-04T16:10:34.870Z,59.62
2019-02-04T16:13:06.896Z,59.78
2019-02-04T16:15:38.399Z,59.95
2019-02-04T16:18:09.692Z,59.73
2019-02-04T16:20:41.074Z,60.15
2019-02-04T16:23:12.504Z,59.59
2019-02-04T16:25:43.812Z,60.23
2019-02-04T16:28:15.257Z,60.51
2019-02-04T16:30:46.930Z,60.80
2019-02-04T16:33:18.264Z,60.55
2019-02-04T16:35:49.592Z,60.61
2019-02-04T16:38:21.276Z,60.99
2019-02-04T16:40:52.565Z,61.75
2019-02-04T16:43:24.245Z,62.10
2019-02-04T16:45:57.154Z,62.31
2019-02-04T16:48:28.429Z,62.56
2019-02-04T16:51:11.284Z,62.71
2019-02-04T16:53:33.015Z,62.49
2019-02-04T16:56:04.402Z,62.76
2019-02-04T16:58:36.046Z,62.73
2019-02-04T17:01:07.695Z,63.38
2019-02-04T17:03:39.739Z,64.04
2019-02-04T17:06:11.802Z,64.22
2019-02-04T17:08:43.132Z,64.14
2019-02-04T17:11:14.409Z,64.03
2019-02-04T17:13:45.719Z,64.66
2019-02-04T17:16:17.435Z,64.50
2019-02-04T17:18:49.209Z,64.35
2019-02-04T17:21:20.549Z,64.23
2019-02-04T17:23:51.952Z,64.02
2019-02-04T17:26:23.292Z,63.77
2019-02-04T17:28:54.602Z,63.09
2019-02-04T17:31:25.966Z,63.16
2019-02-04T17:33:57.341Z,62.61
2019-02-04T17:36:29.002Z,62.92
2019-02-04T17:39:00.737Z,62.94
2019-02-04T17:41:32.326Z,63.81
2019-02-04T17:44:04.051Z,63.12
2019-02-04T17:46:35.622Z,63.04
2019-02-04T17:49:08.360Z,63.25
2019-02-04T17:51:40.236Z,62.60
2019-02-04T17:54:11.939Z,62.15
2019-02-04T17:56:43.206Z,62.66
2019-02-04T17:59:15.058Z,61.99
2019-02-04T18:01:46.808Z,62.16
2019-02-04T18:04:18.937Z,62.00
2019-02-04T18:06:50.267Z,62.20
2019-02-04T18:09:22.621Z,62.59
2019-02-04T18:11:53.973Z,62.32
2019-02-04T18:14:25.612Z,62.32
2019-02-04T18:16:56.938Z,62.11
2019-02-04T18:19:28.641Z,61.35
2019-02-04T18:22:00.609Z,61.31
2019-02-04T18:24:32.015Z,61.59
2019-02-04T18:27:03.597Z,62.15
2019-02-04T18:29:34.903Z,62.28
2019-02-04T18:32:06.481Z,61.97
2019-02-04T18:34:37.778Z,62.02
2019-02-04T18:37:09.472Z,61.73
2019-02-04T18:39:40.805Z,61.97
2019-02-04T18:42:12.104Z,61.71
2019-02-04T18:44:44.403Z,61.56
2019-02-04T18:47:16.091Z,61.12
2019-02-04T18:49:47.683Z,61.20
2019-02-04T18:52:19.682Z,60.90
2019-02-04T18:54:51.536Z,61.06
2019-02-04T18:57:23.132Z,61.10
2019-02-04T18:59:54.464Z,60.74
2019-02-04T19:02:25.800Z,61.28
2019-02-04T19:04:57.120Z,60.92
2019-02-04T19:07:28.561Z,61.10
2019-02-04T19:10:00.201Z,60.90
2019-02-04T19:12:31.541Z,61.52
2019-02-04T19:15:02.846Z,61.23
2019-02-04T19:17:34.496Z,61.54
2019-02-04T19:20:06.856Z,61.37
2019-02-04T19:22:38.370Z,61.55
2019-02-04T19:25:11.074Z,61.42
2019-02-04T19:27:42.802Z,62.01
2019-02-04T19:30:47.356Z,61.86
2019-02-04T19:33:18.856Z,62.12
2019-02-04T19:35:50.372Z,62.69
2019-02-04T19:38:21.779Z,63.15
2019-02-04T19:40:53.991Z,62.58
2019-02-04T19:43:25.391Z,62.13
2019-02-04T19:45:56.739Z,61.03
2019-02-04T19:48:28.070Z,61.10
2019-02-04T19:50:59.398Z,60.83
2019-02-04T19:53:31.101Z,61.16
2019-02-04T19:56:02.853Z,60.82
2019-02-04T19:58:34.211Z,60.74
2019-02-04T20:01:06.761Z,60.24
2019-02-04T20:03:38.050Z,60.21
2019-02-04T20:06:09.626Z,60.49
2019-02-04T20:08:41.622Z,60.20
2019-02-04T20:11:12.981Z,59.85
2019-02-04T20:13:44.609Z,60.11
2019-02-04T20:16:15.958Z,59.09
2019-02-04T20:18:48.032Z,59.97
2019-02-04T20:21:19.369Z,59.60
2019-02-04T20:23:50.715Z,58.94
2019-02-04T20:26:22.203Z,58.62
2019-02-04T20:28:53.553Z,58.62
2019-02-04T20:31:24.976Z,58.46
2019-02-04T20:33:56.320Z,58.48
2019-02-04T20:36:28.264Z,58.96
2019-02-04T20:38:59.613Z,58.78
2019-02-04T20:41:30.941Z,58.28
2019-02-04T20:44:02.620Z,58.32
2019-02-04T20:46:34.201Z,58.14
2019-02-04T20:49:06.182Z,58.40
2019-02-04T20:51:37.793Z,58.86
2019-02-04T20:54:19.455Z,58.41
2019-02-04T20:56:42.205Z,58.61
2019-02-04T20:59:13.741Z,58.15
2019-02-04T21:01:45.406Z,58.30
2019-02-04T21:04:16.719Z,57.81
2019-02-04T21:06:55.788Z,57.80
2019-02-04T21:09:21.192Z,58.82
2019-02-04T21:11:52.594Z,59.10
2019-02-04T21:14:23.907Z,58.85
2019-02-04T21:16:55.556Z,59.42
2019-02-04T21:19:26.940Z,58.26
2019-02-04T21:21:58.639Z,57.63
2019-02-04T21:24:30.418Z,57.70
2019-02-04T21:27:02.487Z,57.30
2019-02-04T21:29:33.796Z,57.75
2019-02-04T21:32:05.186Z,57.60
2019-02-04T21:34:36.488Z,57.35
2019-02-04T21:37:08.347Z,58.77
2019-02-04T21:39:39.685Z,58.18
2019-02-04T21:42:11.005Z,57.90
2019-02-04T21:44:42.300Z,57.85
2019-02-04T21:47:13.922Z,57.85
2019-02-04T21:49:45.850Z,57.85
2019-02-04T21:52:17.129Z,57.94
2019-02-04T21:54:48.770Z,58.79
2019-02-04T21:57:20.225Z,58.17
2019-02-04T21:59:51.907Z,58.52
2019-02-04T22:02:23.794Z,58.63
2019-02-04T22:04:55.418Z,59.05
2019-02-04T22:07:26.795Z,59.50
2019-02-04T22:09:58.497Z,59.23
2019-02-04T22:12:30.243Z,58.82
2019-02-04T22:15:01.580Z,60.59
2019-02-04T22:17:33.592Z,58.75
2019-02-04T22:20:06.813Z,59.04
2019-02-04T22:22:38.616Z,58.99
2019-02-04T22:25:19.474Z,59.57
2019-02-04T22:27:44.182Z,59.87
2019-02-04T22:30:22.185Z,58.83
2019-02-04T22:32:53.526Z,59.06
2019-02-04T22:35:25.126Z,59.15
2019-02-04T22:37:56.766Z,59.14
2019-02-04T22:40:30.304Z,59.39
2019-02-04T22:43:01.976Z,59.35
2019-02-04T22:45:33.655Z,59.77
2019-02-04T22:48:05.075Z,58.70
2019-02-04T22:50:36.383Z,59.45
2019-02-04T22:53:08.247Z,59.08
2019-02-04T22:55:39.592Z,59.00
2019-02-04T22:58:11.228Z,59.46
2019-02-04T23:01:15.221Z,58.95
2019-02-04T23:03:46.532Z,59.52
2019-02-04T23:06:18.116Z,60.08
2019-02-04T23:08:49.487Z,58.98
2019-02-04T23:11:21.386Z,58.98
2019-02-04T23:13:53.480Z,59.14
2019-02-04T23:16:25.497Z,58.72
2019-02-04T23:18:56.964Z,58.68
2019-02-04T23:21:28.601Z,59.03
2019-02-04T23:24:00.057Z,58.78
2019-02-04T23:26:31.542Z,58.56
2019-02-04T23:29:02.845Z,59.14
2019-02-04T23:31:34.207Z,58.85
2019-02-04T23:34:06.370Z,59.61
2019-02-04T23:36:38.163Z,58.96
2019-02-04T23:39:11.407Z,59.35
2019-02-04T23:41:42.745Z,59.00
2019-02-04T23:44:14.110Z,59.01
2019-02-04T23:46:46.274Z,58.87
2019-02-04T23:49:17.867Z,59.21
2019-02-04T23:51:49.172Z,58.84
2019-02-04T23:54:20.463Z,58.91
2019-02-04T23:56:52.237Z,59.19
2019-02-04T23:59:23.952Z,59.54
